createdAt,value
2022-07-25T00:00:17.987Z,98193.52
2022-07-25T00:03:03.511Z,98192.81
2022-07-25T00:05:37.350Z,98190.32
2022-07-25T00:08:05.989Z,98191.59
2022-07-25T00:10:33.993Z,98189.77
2022-07-25T00:13:02.151Z,98189.64
2022-07-25T00:15:30.395Z,98188.40
2022-07-25T00:17:58.356Z,98184.26
2022-07-25T00:20:26.319Z,98184.99
2022-07-25T00:22:54.798Z,98185.89
2022-07-25T00:25:22.720Z,98184.23
2022-07-25T00:27:50.664Z,98178.77
2022-07-25T00:30:18.623Z,98171.90
2022-07-25T00:32:46.763Z,98170.23
2022-07-25T00:35:14.779Z,98169.20
2022-07-25T00:37:42.699Z,98169.85
2022-07-25T00:40:11.415Z,98165.09
2022-07-25T00:42:39.468Z,98163.70
2022-07-25T00:45:07.960Z,98165.45
2022-07-25T00:47:37.059Z,98162.73
2022-07-25T00:50:05.379Z,98161.46
2022-07-25T00:57:04.938Z,98154.43
2022-07-25T00:59:33.053Z,98161.13
2022-07-25T01:02:03.666Z,98156.55
2022-07-25T01:04:32.256Z,98152.41
2022-07-25T01:07:01.150Z,98147.94
2022-07-25T01:09:29.710Z,98150.45
2022-07-25T01:11:57.655Z,98144.73
2022-07-25T01:14:25.798Z,98149.42
2022-07-25T01:16:53.821Z,98148.98
2022-07-25T01:19:22.039Z,98146.80
2022-07-25T01:21:49.984Z,98141.70
2022-07-25T01:24:17.969Z,98141.49
2022-07-25T01:26:45.898Z,98140.59
2022-07-25T01:29:14.037Z,98140.17
2022-07-25T01:31:42.005Z,98136.66
2022-07-25T01:34:10.222Z,98140.35
2022-07-25T01:36:38.460Z,98140.40
2022-07-25T01:39:06.399Z,98139.88
2022-07-25T01:41:34.352Z,98134.14
2022-07-25T01:44:02.434Z,98133.29
2022-07-25T01:46:30.831Z,98129.24
2022-07-25T01:49:00.549Z,98128.15
2022-07-25T01:51:28.689Z,98127.36
2022-07-25T01:53:56.727Z,98126.57
2022-07-25T01:56:25.534Z,98125.19
2022-07-25T01:58:53.525Z,98126.47
2022-07-25T02:01:22.251Z,98127.77
2022-07-25T02:03:51.146Z,98125.77
2022-07-25T02:06:19.854Z,98129.13
2022-07-25T02:08:47.915Z,98122.29
2022-07-25T02:11:15.981Z,98121.61
2022-07-25T02:13:44.804Z,98120.97
2022-07-25T02:16:12.965Z,98122.10
2022-07-25T02:18:40.869Z,98123.27
2022-07-25T02:21:13.870Z,98124.25
2022-07-25T02:23:44.427Z,98128.73
2022-07-25T02:26:13.187Z,98133.73
2022-07-25T02:28:41.567Z,98132.14
2022-07-25T02:31:09.821Z,98130.70
2022-07-25T02:33:38.199Z,98130.05
2022-07-25T02:36:06.758Z,98132.25
2022-07-25T02:38:35.145Z,98129.69
2022-07-25T02:41:03.813Z,98129.15
2022-07-25T02:43:31.865Z,98127.02
2022-07-25T02:46:00.266Z,98130.29
2022-07-25T02:48:28.514Z,98118.82
2022-07-25T02:50:56.678Z,98126.01
2022-07-25T02:53:47.237Z,98129.70
2022-07-25T02:56:13.574Z,98133.64
2022-07-25T02:58:42.898Z,98132.56
2022-07-25T03:01:10.914Z,98131.14
2022-07-25T03:03:39.200Z,98128.33
2022-07-25T03:06:07.289Z,98128.64
2022-07-25T03:08:35.274Z,98130.81
2022-07-25T03:11:03.323Z,98130.44
2022-07-25T03:13:33.402Z,98128.88
2022-07-25T03:16:01.501Z,98128.52
2022-07-25T03:18:29.794Z,98127.31
2022-07-25T03:20:57.827Z,98130.38
2022-07-25T03:23:27.453Z,98133.52
2022-07-25T03:25:56.188Z,98133.20
2022-07-25T03:28:24.961Z,98131.63
2022-07-25T03:30:53.509Z,98129.24
2022-07-25T03:33:21.547Z,98131.77
2022-07-25T03:35:49.558Z,98129.44
2022-07-25T03:38:17.503Z,98126.91
2022-07-25T03:40:45.464Z,98131.52
2022-07-25T03:43:13.520Z,98134.23
2022-07-25T03:45:41.441Z,98132.17
2022-07-25T03:48:09.435Z,98129.08
2022-07-25T03:50:37.532Z,98124.33
2022-07-25T03:53:05.451Z,98125.41
2022-07-25T03:55:33.508Z,98122.52
2022-07-25T03:58:01.524Z,98124.13
2022-07-25T04:00:29.593Z,98121.42
2022-07-25T04:02:58.135Z,98120.77
2022-07-25T04:05:26.161Z,98117.05
2022-07-25T04:07:54.091Z,98115.45
2022-07-25T04:10:22.048Z,98115.66
2022-07-25T04:13:07.257Z,98109.09
2022-07-25T04:15:35.272Z,98102.93
2022-07-25T04:18:03.237Z,98101.86
2022-07-25T04:20:34.320Z,98102.63
2022-07-25T04:23:02.652Z,98099.14
2022-07-25T04:25:31.221Z,98097.42
2022-07-25T04:27:59.121Z,98099.48
2022-07-25T04:30:27.115Z,98099.84
2022-07-25T04:32:55.085Z,98099.02
2022-07-25T04:35:23.140Z,98096.11
2022-07-25T04:37:51.108Z,98095.89
2022-07-25T04:40:19.093Z,98097.70
2022-07-25T04:42:47.070Z,98101.17
2022-07-25T04:45:17.824Z,98100.67
2022-07-25T04:47:46.235Z,98105.52
2022-07-25T04:50:14.289Z,98104.85
2022-07-25T04:52:43.130Z,98099.52
2022-07-25T04:55:11.968Z,98103.02
2022-07-25T04:57:39.982Z,98103.05
2022-07-25T05:00:10.597Z,98107.55
2022-07-25T05:02:38.770Z,98111.34
2022-07-25T05:05:08.648Z,98106.80
2022-07-25T05:07:50.689Z,98104.79
2022-07-25T05:10:21.959Z,98103.09
2022-07-25T05:12:50.111Z,98100.08
2022-07-25T05:15:18.222Z,98098.52
2022-07-25T05:17:46.257Z,98100.29
2022-07-25T05:20:14.919Z,98098.10
2022-07-25T05:22:43.381Z,98094.91
2022-07-25T05:25:12.305Z,98095.13
2022-07-25T05:27:40.817Z,98088.04
2022-07-25T05:30:10.515Z,98084.23
2022-07-25T05:32:39.987Z,98082.63
2022-07-25T05:35:09.772Z,98082.09
2022-07-25T05:37:38.582Z,98078.83
2022-07-25T05:40:08.153Z,98078.36
2022-07-25T05:42:36.378Z,98072.86
2022-07-25T05:45:05.323Z,98073.16
2022-07-25T05:47:33.368Z,98071.44
2022-07-25T05:50:02.734Z,98068.45
2022-07-25T05:52:30.783Z,98074.18
2022-07-25T05:54:58.825Z,98074.06
2022-07-25T05:57:26.746Z,98073.37
2022-07-25T05:59:54.684Z,98073.30
2022-07-25T06:02:22.871Z,98076.69
2022-07-25T06:04:50.895Z,98075.26
2022-07-25T06:07:19.311Z,98078.45
2022-07-25T06:09:47.763Z,98076.73
2022-07-25T06:12:17.307Z,98056.03
2022-07-25T06:14:45.494Z,98072.63
2022-07-25T06:17:13.757Z,98072.06
2022-07-25T06:19:41.741Z,98071.20
2022-07-25T06:22:11.462Z,98061.73
2022-07-25T06:24:39.448Z,98053.43
2022-07-25T06:27:08.811Z,98054.45
2022-07-25T06:29:38.103Z,98049.52
2022-07-25T06:32:06.452Z,98050.55
2022-07-25T06:34:34.452Z,98047.92
2022-07-25T06:37:02.623Z,98049.08
2022-07-25T06:39:30.771Z,98045.52
2022-07-25T06:42:00.317Z,98043.48
2022-07-25T06:44:34.183Z,98042.27
2022-07-25T06:47:03.483Z,98041.70
2022-07-25T06:49:32.011Z,98035.91
2022-07-25T06:52:00.019Z,98034.99
2022-07-25T06:54:27.964Z,98025.48
2022-07-25T06:56:55.953Z,98025.55
2022-07-25T06:59:24.297Z,98021.55
2022-07-25T07:01:52.618Z,98019.90
2022-07-25T07:04:20.692Z,98013.81
2022-07-25T07:06:48.754Z,98017.22
2022-07-25T07:09:16.700Z,98018.13
2022-07-25T07:11:44.620Z,98020.36
2022-07-25T07:14:12.606Z,98021.00
2022-07-25T07:16:41.744Z,98014.47
2022-07-25T07:19:14.877Z,98017.71
2022-07-25T07:21:43.066Z,98019.08
2022-07-25T07:24:24.004Z,98016.52
2022-07-25T07:26:54.439Z,98015.76
2022-07-25T07:29:22.629Z,98014.92
2022-07-25T07:31:50.749Z,98016.23
2022-07-25T07:34:18.987Z,98018.63
2022-07-25T07:36:47.554Z,98021.14
2022-07-25T07:39:16.736Z,98018.20
2022-07-25T07:41:44.867Z,98019.58
2022-07-25T07:44:13.169Z,98021.14
2022-07-25T07:46:41.393Z,98017.31
2022-07-25T07:49:09.917Z,98016.67
2022-07-25T07:51:38.535Z,98006.83
2022-07-25T07:54:25.466Z,98006.60
2022-07-25T07:56:53.510Z,98007.67
2022-07-25T07:59:22.182Z,98006.36
2022-07-25T08:01:50.312Z,98001.75
2022-07-25T08:04:18.352Z,97995.56
2022-07-25T08:06:47.243Z,97991.84
2022-07-25T08:09:15.248Z,97991.39
2022-07-25T08:11:43.303Z,97993.48
2022-07-25T08:14:11.620Z,97989.59
2022-07-25T08:16:39.682Z,97988.24
2022-07-25T08:19:07.757Z,97988.36
2022-07-25T08:21:35.754Z,97986.59
2022-07-25T08:24:04.423Z,97990.00
2022-07-25T08:26:37.300Z,97990.95
2022-07-25T08:29:18.656Z,97987.19
2022-07-25T08:31:47.940Z,97982.02
2022-07-25T08:34:16.060Z,97986.74
2022-07-25T08:36:44.439Z,97989.96
2022-07-25T08:39:13.991Z,97994.08
2022-07-25T08:41:43.269Z,97996.27
2022-07-25T08:44:14.918Z,97995.40
2022-07-25T08:46:44.333Z,97995.24
2022-07-25T08:49:12.662Z,97992.79
2022-07-25T08:51:41.109Z,97993.73
2022-07-25T08:54:09.855Z,97987.25
2022-07-25T08:56:38.411Z,97984.40
2022-07-25T08:59:06.805Z,97981.51
2022-07-25T09:01:35.220Z,97982.97
2022-07-25T09:04:04.681Z,97978.29
2022-07-25T09:06:33.064Z,97975.83
2022-07-25T09:09:05.129Z,97970.38
2022-07-25T09:11:36.257Z,97970.70
2022-07-25T09:14:14.897Z,97968.70
2022-07-25T09:16:45.323Z,97966.73
2022-07-25T09:19:16.912Z,97970.99
2022-07-25T09:21:57.454Z,97967.83
2022-07-25T09:24:28.169Z,97970.08
2022-07-25T09:26:59.929Z,97963.27
2022-07-25T09:29:33.665Z,97960.75
2022-07-25T09:32:02.278Z,97955.29
2022-07-25T09:34:41.949Z,97958.55
2022-07-25T09:37:12.720Z,97962.47
2022-07-25T09:39:51.710Z,97963.33
2022-07-25T09:42:51.294Z,97958.52
2022-07-25T09:45:19.311Z,97955.09
2022-07-25T09:47:52.279Z,97956.20
2022-07-25T09:50:21.940Z,97950.19
2022-07-25T09:52:54.547Z,97948.37
2022-07-25T09:55:23.723Z,97945.08
2022-07-25T09:57:55.048Z,97938.41
2022-07-25T10:00:25.872Z,97939.77
2022-07-25T10:03:38.699Z,97935.25
2022-07-25T10:06:26.281Z,97935.02
2022-07-25T10:08:54.914Z,97934.05
2022-07-25T10:11:27.901Z,97932.41
2022-07-25T10:13:57.362Z,97929.64
2022-07-25T10:16:27.118Z,97928.98
2022-07-25T10:18:58.301Z,97923.36
2022-07-25T10:21:28.519Z,97921.98
2022-07-25T10:24:33.516Z,97923.04
2022-07-25T10:27:09.744Z,97921.58
2022-07-25T10:29:40.991Z,97923.84
2022-07-25T10:32:14.060Z,97924.31
2022-07-25T10:34:52.951Z,97917.61
2022-07-25T10:37:27.973Z,97912.89
2022-07-25T10:39:56.815Z,97912.54
2022-07-25T10:42:26.801Z,97911.79
2022-07-25T10:44:59.120Z,97914.27
2022-07-25T10:47:28.371Z,97914.55
2022-07-25T10:53:07.882Z,97907.98
2022-07-25T10:55:36.992Z,97903.05
2022-07-25T10:58:22.316Z,97896.84
2022-07-25T11:00:51.499Z,97897.68
2022-07-25T11:03:21.118Z,97895.66
2022-07-25T11:05:49.720Z,97893.73
2022-07-25T11:08:22.405Z,97892.95
2022-07-25T11:10:52.802Z,97888.55
2022-07-25T11:13:20.978Z,97884.61
2022-07-25T11:15:50.033Z,97879.67
2022-07-25T11:18:18.774Z,97875.95
2022-07-25T11:28:35.600Z,97863.01
2022-07-25T11:41:42.608Z,97844.77
2022-07-25T11:48:08.655Z,97840.17
2022-07-25T11:51:13.600Z,97836.70
2022-07-25T11:54:13.621Z,97833.52
2022-07-25T11:57:42.287Z,97828.67
2022-07-25T12:00:21.220Z,97825.37
2022-07-25T12:03:18.693Z,97826.91
2022-07-25T12:10:34.991Z,97814.73
2022-07-25T12:17:19.518Z,97803.48
2022-07-25T12:19:48.393Z,97800.27
2022-07-25T12:22:21.351Z,97794.30
2022-07-25T12:25:13.164Z,97791.34
2022-07-25T12:28:13.389Z,97792.13
2022-07-25T12:30:44.046Z,97783.46
2022-07-25T12:33:13.129Z,97782.77
2022-07-25T12:39:58.621Z,97780.36
2022-07-25T12:42:27.335Z,97777.52
2022-07-25T12:47:51.549Z,97770.80
2022-07-25T12:51:41.700Z,97768.95
2022-07-25T12:54:10.198Z,97766.67
2022-07-25T12:56:52.632Z,97764.92
2022-07-25T13:03:28.534Z,97757.87
2022-07-25T13:06:59.643Z,97756.62
2022-07-25T13:17:12.718Z,97743.29
2022-07-25T13:20:18.685Z,97739.09
2022-07-25T13:23:57.063Z,97734.40
2022-07-25T13:26:25.391Z,97728.70
2022-07-25T13:28:59.367Z,97723.06
2022-07-25T13:32:37.205Z,97722.86
2022-07-25T13:35:06.703Z,97720.70
2022-07-25T13:38:13.637Z,97712.27
2022-07-25T13:41:23.597Z,97710.77
2022-07-25T13:47:39.666Z,97701.94
2022-07-25T13:50:08.404Z,97702.33
2022-07-25T13:53:05.601Z,97702.06
2022-07-25T13:55:36.013Z,97694.21
2022-07-25T13:58:20.809Z,97691.85
2022-07-25T14:01:12.669Z,97689.84
2022-07-25T14:04:35.999Z,97685.16
2022-07-25T14:07:04.137Z,97684.14
2022-07-25T14:09:32.381Z,97678.25
2022-07-25T14:12:00.476Z,97673.75
2022-07-25T14:14:28.473Z,97672.40
2022-07-25T14:16:56.633Z,97671.05
2022-07-25T14:20:19.012Z,97662.19
2022-07-25T14:22:47.493Z,97663.04
2022-07-25T14:25:15.631Z,97662.91
2022-07-25T14:27:45.334Z,97659.66
2022-07-25T14:30:13.892Z,97654.91
2022-07-25T14:32:41.817Z,97655.48
2022-07-25T14:35:11.571Z,97651.24
2022-07-25T14:37:39.704Z,97647.98
2022-07-25T14:44:52.623Z,97639.71
2022-07-25T14:47:23.487Z,97641.32
2022-07-25T14:49:55.194Z,97630.48
2022-07-25T14:52:23.489Z,97629.04
2022-07-25T14:54:51.593Z,97626.75
2022-07-25T14:57:19.587Z,97625.97
2022-07-25T15:00:41.844Z,97616.98
2022-07-25T15:03:10.407Z,97617.55
2022-07-25T15:05:39.259Z,97608.82
2022-07-25T15:08:07.670Z,97611.98
2022-07-25T15:10:36.940Z,97611.37
2022-07-25T15:13:30.121Z,97608.51
2022-07-25T15:16:13.121Z,97602.23
2022-07-25T15:19:05.336Z,97598.85
2022-07-25T15:21:29.421Z,97596.73
2022-07-25T15:23:57.729Z,97595.08
2022-07-25T15:26:26.690Z,97592.95
2022-07-25T15:28:54.885Z,97584.36
2022-07-25T15:31:24.794Z,97585.52
2022-07-25T15:33:55.211Z,97583.59
2022-07-25T15:36:28.767Z,97584.34
2022-07-25T15:38:57.572Z,97585.14
2022-07-25T15:41:26.841Z,97582.70
2022-07-25T15:43:54.873Z,97573.94
2022-07-25T15:46:23.646Z,97571.85
2022-07-25T15:48:51.798Z,97562.49
2022-07-25T15:51:19.979Z,97566.79
2022-07-25T15:53:48.224Z,97562.91
2022-07-25T15:56:17.152Z,97562.48
2022-07-25T15:58:47.435Z,97562.90
2022-07-25T16:01:16.084Z,97559.54
2022-07-25T16:08:35.798Z,97550.44
2022-07-25T16:11:04.908Z,97546.66
2022-07-25T16:13:33.060Z,97547.35
2022-07-25T16:16:01.275Z,97547.48
2022-07-25T16:18:29.456Z,97545.66
2022-07-25T16:20:58.163Z,97545.64
2022-07-25T16:23:28.245Z,97533.62
2022-07-25T16:25:56.203Z,97544.36
2022-07-25T16:32:19.464Z,97543.34
2022-07-25T16:34:47.523Z,97547.14
2022-07-25T16:37:15.716Z,97544.59
2022-07-25T16:39:43.941Z,97537.91
2022-07-25T16:42:12.034Z,97538.17
2022-07-25T16:44:41.577Z,97538.72
2022-07-25T16:47:09.657Z,97543.90
2022-07-25T16:49:37.930Z,97542.04
2022-07-25T16:52:06.150Z,97539.52
2022-07-25T16:54:34.460Z,97536.02
2022-07-25T16:57:02.612Z,97535.87
2022-07-25T16:59:30.615Z,97531.73
2022-07-25T17:02:08.778Z,97530.04
2022-07-25T17:04:39.516Z,97528.14
2022-07-25T17:07:07.986Z,97525.88
2022-07-25T17:09:35.993Z,97525.92
2022-07-25T17:12:04.488Z,97520.04
2022-07-25T17:14:39.138Z,97524.43
2022-07-25T17:17:35.889Z,97519.05
2022-07-25T17:20:04.716Z,97521.51
2022-07-25T17:22:32.792Z,97521.14
2022-07-25T17:25:01.387Z,97519.84
2022-07-25T17:27:29.951Z,97517.48
2022-07-25T17:34:07.506Z,97514.62
2022-07-25T17:36:35.731Z,97508.29
2022-07-25T17:39:04.055Z,97507.05
2022-07-25T17:41:32.699Z,97502.97
2022-07-25T17:44:01.074Z,97501.72
2022-07-25T17:46:29.263Z,97497.66
2022-07-25T17:48:59.681Z,97500.55
2022-07-25T17:51:33.335Z,97500.52
2022-07-25T17:54:11.308Z,97500.40
2022-07-25T17:56:42.400Z,97506.23
2022-07-25T17:59:10.746Z,97499.88
2022-07-25T18:01:40.194Z,97473.89
2022-07-25T18:04:11.126Z,97498.04
2022-07-25T18:06:39.702Z,97498.85
2022-07-25T18:09:08.694Z,97501.92
2022-07-25T18:11:36.856Z,97501.55
2022-07-25T18:14:05.022Z,97504.55
2022-07-25T18:16:33.616Z,97502.98
2022-07-25T18:19:01.757Z,97498.73
2022-07-25T18:21:30.491Z,97495.24
2022-07-25T18:23:58.730Z,97493.61
2022-07-25T18:26:28.401Z,97486.24
2022-07-25T18:28:56.552Z,97487.94
2022-07-25T18:31:35.030Z,97485.69
2022-07-25T18:34:04.006Z,97487.36
2022-07-25T18:36:32.611Z,97488.18
2022-07-25T18:39:00.676Z,97487.14
2022-07-25T18:41:30.149Z,97487.87
2022-07-25T18:43:58.791Z,97486.64
2022-07-25T18:46:30.331Z,97485.90
2022-07-25T18:48:59.268Z,97482.11
2022-07-25T18:51:27.683Z,97486.98
2022-07-25T18:53:55.828Z,97480.55
2022-07-25T18:56:26.339Z,97481.40
2022-07-25T18:58:54.346Z,97483.61
2022-07-25T19:01:22.553Z,97482.03
2022-07-25T19:03:50.751Z,97476.34
2022-07-25T19:06:18.712Z,97478.20
2022-07-25T19:08:48.058Z,97474.48
2022-07-25T19:11:16.169Z,97466.80
2022-07-25T19:13:49.923Z,97470.95
2022-07-25T19:16:19.377Z,97468.44
2022-07-25T19:18:47.623Z,97464.69
2022-07-25T19:21:15.666Z,97462.02
2022-07-25T19:23:49.698Z,97461.42
2022-07-25T19:26:19.456Z,97458.70
2022-07-25T19:28:48.843Z,97454.88
2022-07-25T19:31:17.572Z,97456.40
2022-07-25T19:33:46.244Z,97447.00
2022-07-25T19:36:14.599Z,97450.15
2022-07-25T19:38:42.703Z,97446.95
2022-07-25T19:41:10.715Z,97445.45
2022-07-25T19:43:38.715Z,97447.52
2022-07-25T19:46:06.862Z,97443.66
2022-07-25T19:48:34.949Z,97443.89
2022-07-25T19:51:03.243Z,97441.63
2022-07-25T19:53:58.777Z,97440.13
2022-07-25T19:56:26.759Z,97435.75
2022-07-25T19:58:54.795Z,97435.58
2022-07-25T20:01:28.594Z,97434.58
2022-07-25T20:03:56.622Z,97437.02
2022-07-25T20:06:24.914Z,97438.20
2022-07-25T20:08:53.058Z,97433.33
2022-07-25T20:11:21.374Z,97431.60
2022-07-25T20:13:49.344Z,97429.27
2022-07-25T20:16:17.585Z,97426.58
2022-07-25T20:18:45.546Z,97427.21
2022-07-25T20:21:13.593Z,97422.27
2022-07-25T20:24:07.483Z,97425.02
2022-07-25T20:26:35.744Z,97423.30
2022-07-25T20:29:04.457Z,97424.63
2022-07-25T20:31:32.711Z,97425.02
2022-07-25T20:34:00.755Z,97427.38
2022-07-25T20:36:28.741Z,97429.42
2022-07-25T20:38:56.981Z,97428.55
2022-07-25T20:41:26.909Z,97425.95
2022-07-25T20:43:56.994Z,97427.63
2022-07-25T20:46:24.985Z,97417.80
2022-07-25T20:48:53.146Z,97420.08
2022-07-25T20:51:21.166Z,97418.04
2022-07-25T20:53:51.646Z,97421.65
2022-07-25T20:56:21.668Z,97418.82
2022-07-25T20:58:49.634Z,97420.64
2022-07-25T21:01:17.826Z,97420.55
2022-07-25T21:03:45.806Z,97417.41
2022-07-25T21:06:13.860Z,97420.08
2022-07-25T21:08:41.781Z,97421.95
2022-07-25T21:11:09.711Z,97420.38
2022-07-25T21:13:37.740Z,97419.83
2022-07-25T21:16:05.980Z,97422.00
2022-07-25T21:18:34.007Z,97421.92
2022-07-25T21:21:01.894Z,97423.20
2022-07-25T21:23:29.923Z,97424.12
2022-07-25T21:25:57.968Z,97423.96
2022-07-25T21:28:26.169Z,97422.70
2022-07-25T21:30:54.237Z,97426.00
2022-07-25T21:33:22.198Z,97421.52
2022-07-25T21:35:53.458Z,97424.19
2022-07-25T21:38:26.023Z,97422.15
2022-07-25T21:40:57.284Z,97421.29
2022-07-25T21:43:25.190Z,97419.02
2022-07-25T21:45:54.517Z,97417.60
2022-07-25T21:48:43.426Z,97427.50
2022-07-25T21:51:19.260Z,97431.58
2022-07-25T21:53:52.777Z,97423.17
2022-07-25T21:56:21.155Z,97413.83
2022-07-25T21:58:49.332Z,97407.39
2022-07-25T22:01:19.619Z,97404.41
2022-07-25T22:03:47.747Z,97404.02
2022-07-25T22:06:15.803Z,97393.02
2022-07-25T22:08:43.687Z,97404.33
2022-07-25T22:11:20.755Z,97397.75
2022-07-25T22:13:59.722Z,97394.91
2022-07-25T22:16:27.865Z,97398.05
2022-07-25T22:18:57.326Z,97394.21
2022-07-25T22:21:25.494Z,97396.71
2022-07-25T22:23:53.542Z,97388.40
2022-07-25T22:26:21.703Z,97377.41
2022-07-25T22:28:50.763Z,97374.27
2022-07-25T22:31:18.996Z,97372.77
2022-07-25T22:33:47.048Z,97374.96
2022-07-25T22:36:15.123Z,97369.46
2022-07-25T22:38:43.999Z,97359.34
2022-07-25T22:41:12.317Z,97359.34
2022-07-25T22:43:57.224Z,97360.83
2022-07-25T22:46:29.372Z,97357.77
2022-07-25T22:48:58.469Z,97351.48
2022-07-25T22:51:27.681Z,97343.47
2022-07-25T22:53:59.711Z,97343.68
2022-07-25T22:56:28.583Z,97337.15
2022-07-25T22:59:02.198Z,97329.39
2022-07-25T23:01:30.153Z,97327.88
2022-07-25T23:03:58.206Z,97326.23
2022-07-25T23:07:43.587Z,97321.98
2022-07-25T23:10:12.287Z,97320.79
2022-07-25T23:12:40.233Z,97320.47
2022-07-25T23:15:08.732Z,97313.56
2022-07-25T23:17:36.640Z,97318.80
2022-07-25T23:20:05.581Z,97318.39
2022-07-25T23:22:37.151Z,97308.89
2022-07-25T23:25:05.649Z,97298.30
2022-07-25T23:27:35.003Z,97304.00
2022-07-25T23:30:06.252Z,97301.48
2022-07-25T23:32:34.503Z,97312.59
2022-07-25T23:35:02.488Z,97319.94
2022-07-25T23:37:30.420Z,97321.64
2022-07-25T23:39:58.341Z,97321.55
2022-07-25T23:42:26.412Z,97323.46
2022-07-25T23:44:54.457Z,97324.27
2022-07-25T23:47:26.827Z,97322.64
2022-07-25T23:50:08.269Z,97316.79
2022-07-25T23:52:36.151Z,97320.02
2022-07-25T23:55:05.570Z,97315.06
2022-07-25T23:57:33.882Z,97307.44
